Time;durP1;ratioP1;P1;durP2;ratioP2;P2;SDS_P1;SDS_P2;PMS_P1;PMS_P2;Temp;Humidity;BMP_temperature;BMP_pressure;BME280_temperature;BME280_humidity;BME280_pressure;Samples;Min_cycle;Max_cycle;Signal;HPM_P1;HPM_P2
2023/07/26 00:00:55;;;;;;;6.78;1.87;;;;;;;24.10;56.41;98413.22;4439870;32;33567;-70
2023/07/26 00:03:22;;;;;;;25.10;2.28;;;;;;;24.20;56.10;98414.56;4443689;32;33649;-70
2023/07/26 00:05:50;;;;;;;5.97;2.12;;;;;;;23.78;58.32;98420.03;4450639;32;33691;-70
2023/07/26 00:08:19;;;;;;;3.42;2.00;;;;;;;24.15;57.08;98418.84;4437714;32;34033;-70
2023/07/26 00:10:47;;;;;;;4.62;2.22;;;;;;;23.97;57.88;98423.53;4446846;32;33994;-70
2023/07/26 00:13:17;;;;;;;3.92;2.37;;;;;;;23.75;58.25;98417.75;4441063;32;34398;-70
2023/07/26 00:15:45;;;;;;;4.62;1.60;;;;;;;23.81;58.38;98403.16;4436042;32;33757;-69
2023/07/26 00:18:13;;;;;;;3.95;2.08;;;;;;;24.09;57.38;98391.59;4431630;32;34510;-71
2023/07/26 00:20:40;;;;;;;4.60;2.08;;;;;;;24.12;57.55;98404.81;4427100;32;32533;-70
2023/07/26 00:23:08;;;;;;;2.78;1.55;;;;;;;24.07;58.13;98400.03;4430591;32;34650;-70
2023/07/26 00:25:36;;;;;;;6.87;2.00;;;;;;;24.01;57.80;98384.56;4434724;32;33987;-74
2023/07/26 00:28:03;;;;;;;4.15;1.87;;;;;;;23.75;58.39;98374.88;4448290;32;33487;-75
2023/07/26 00:30:31;;;;;;;3.00;1.40;;;;;;;23.96;57.89;98359.03;4443344;32;34879;-74
2023/07/26 00:32:59;;;;;;;4.90;2.03;;;;;;;23.96;57.79;98359.03;4449303;32;33376;-75
2023/07/26 00:35:28;;;;;;;3.03;1.67;;;;;;;24.02;57.74;98339.78;4436448;32;33691;-73
2023/07/26 00:37:55;;;;;;;1.50;1.40;;;;;;;24.00;58.14;98332.87;4431702;32;33800;-72
2023/07/26 00:40:24;;;;;;;3.92;1.85;;;;;;;24.02;58.61;98322.56;4431864;32;33966;-72
2023/07/26 00:42:51;;;;;;;3.00;1.65;;;;;;;24.08;58.51;98318.88;4434996;32;33769;-72
2023/07/26 00:45:19;;;;;;;3.97;1.92;;;;;;;24.04;58.93;98312.22;4449125;32;33910;-73
2023/07/26 00:47:47;;;;;;;6.37;1.73;;;;;;;23.93;59.14;98311.13;4451675;32;33967;-74
2023/07/26 00:50:15;;;;;;;4.82;1.62;;;;;;;24.03;58.66;98294.16;4450663;32;33497;-72
2023/07/26 00:52:43;;;;;;;2.75;1.52;;;;;;;23.84;58.82;98286.06;4381242;32;33217;-73
2023/07/26 00:55:12;;;;;;;4.80;1.87;;;;;;;23.89;58.56;98286.19;4379391;32;33566;-76
2023/07/26 00:57:39;;;;;;;4.30;1.90;;;;;;;23.82;58.93;98290.94;4384702;32;34054;-74
2023/07/26 01:00:07;;;;;;;3.50;1.83;;;;;;;23.55;59.48;98286.94;4374057;32;34187;-77
2023/07/26 01:02:35;;;;;;;6.37;2.28;;;;;;;22.96;60.71;98284.81;4363055;32;33500;-72
2023/07/26 01:05:04;;;;;;;2.90;1.60;;;;;;;23.49;59.51;98291.41;4355285;32;33735;-74
2023/07/26 01:07:45;;;;;;;4.53;1.67;;;;;;;23.54;59.17;98282.53;4357473;32;33799;-74
2023/07/26 01:10:35;;;;;;;3.45;1.90;;;;;;;23.59;59.17;98277.19;4347604;32;34060;-74
2023/07/26 01:13:47;;;;;;;5.28;2.30;;;;;;;23.53;59.55;98273.53;4340286;32;33175;-74
2023/07/26 01:16:17;;;;;;;3.00;1.90;;;;;;;23.37;59.69;98266.84;4287464;33;33778;-72
2023/07/26 01:18:44;;;;;;;6.40;1.90;;;;;;;23.29;60.28;98255.41;4296677;33;33761;-74
2023/07/26 01:21:12;;;;;;;6.30;1.65;;;;;;;22.98;61.07;98244.47;4311686;33;33832;-75
2023/07/26 01:23:39;;;;;;;3.72;1.52;;;;;;;22.97;60.89;98237.38;4324857;33;33475;-74
2023/07/26 01:26:07;;;;;;;4.20;1.60;;;;;;;23.37;59.65;98245.00;4335734;32;33892;-75
2023/07/26 01:28:34;;;;;;;3.30;1.48;;;;;;;23.47;60.02;98256.16;4337076;33;33914;-75
2023/07/26 01:31:03;;;;;;;8.88;1.35;;;;;;;23.44;59.46;98253.06;4338536;32;33950;-74
2023/07/26 01:33:32;;;;;;;4.55;1.77;;;;;;;23.65;58.61;98249.78;4341739;33;34343;-75
2023/07/26 01:36:00;;;;;;;4.40;1.98;;;;;;;23.46;59.46;98229.09;4326552;33;33937;-75
2023/07/26 01:38:28;;;;;;;3.05;1.60;;;;;;;23.60;58.60;98213.34;4330526;33;35181;-74
2023/07/26 01:40:57;;;;;;;3.08;1.48;;;;;;;23.43;59.28;98214.00;4329661;32;33701;-74
2023/07/26 01:43:25;;;;;;;3.08;1.73;;;;;;;23.45;59.18;98220.06;4328655;33;33830;-75
2023/07/26 01:45:53;;;;;;;3.58;1.62;;;;;;;23.34;58.51;98237.25;4334026;33;34178;-75
2023/07/26 01:48:20;;;;;;;3.20;1.30;;;;;;;23.00;59.16;98236.91;4342032;33;33972;-76
2023/07/26 01:50:48;;;;;;;3.62;1.85;;;;;;;23.13;58.80;98243.25;4349473;32;34170;-76
2023/07/26 01:53:15;;;;;;;2.62;1.48;;;;;;;23.09;59.08;98250.25;4420918;32;34712;-73
2023/07/26 01:55:43;;;;;;;3.33;2.05;;;;;;;22.97;59.60;98264.66;4417366;32;35083;-76
2023/07/26 01:58:11;;;;;;;1.95;1.10;;;;;;;23.08;59.75;98270.37;4418920;32;34106;-77
2023/07/26 02:00:39;;;;;;;3.17;1.60;;;;;;;22.79;60.37;98273.69;4419558;32;33969;-71
2023/07/26 02:03:07;;;;;;;4.15;1.98;;;;;;;22.91;59.96;98281.91;4407138;32;34636;-73
2023/07/26 02:05:34;;;;;;;5.18;2.12;;;;;;;22.90;60.03;98290.34;4404737;32;33817;-72
2023/07/26 02:08:02;;;;;;;5.75;1.37;;;;;;;22.65;60.82;98299.44;4420220;32;34024;-73
2023/07/26 02:10:30;;;;;;;4.65;1.92;;;;;;;22.77;60.08;98294.88;4422205;32;33771;-73
2023/07/26 02:12:58;;;;;;;3.58;1.73;;;;;;;22.68;60.53;98292.69;4423643;32;33747;-70
2023/07/26 02:15:25;;;;;;;3.05;1.85;;;;;;;22.55;60.94;98286.34;4418390;32;34553;-71
2023/07/26 02:17:54;;;;;;;3.55;1.75;;;;;;;22.59;61.12;98302.25;4427855;32;35166;-71
2023/07/26 02:20:21;;;;;;;4.53;2.00;;;;;;;22.44;61.69;98298.00;4416944;32;34602;-70
2023/07/26 02:22:49;;;;;;;4.90;2.37;;;;;;;22.64;61.04;98292.31;4415792;32;33397;-72
2023/07/26 02:25:17;;;;;;;2.50;1.75;;;;;;;22.74;60.77;98308.16;4418832;32;33954;-70
2023/07/26 02:27:48;;;;;;;4.10;1.95;;;;;;;22.72;60.89;98308.37;4419782;32;35079;-70
2023/07/26 02:30:16;;;;;;;4.95;1.55;;;;;;;22.84;61.17;98313.06;4420690;32;34030;-70
2023/07/26 02:32:44;;;;;;;3.80;2.08;;;;;;;22.58;62.02;98309.59;4421560;32;34324;-70
2023/07/26 02:35:11;;;;;;;4.57;2.15;;;;;;;22.68;61.51;98309.06;4420769;32;33580;-71
2023/07/26 02:37:39;;;;;;;6.30;2.60;;;;;;;22.82;61.13;98316.00;4420927;32;33713;-72
2023/07/26 02:40:07;;;;;;;3.78;1.70;;;;;;;22.73;61.24;98323.69;4418807;32;34678;-70
2023/07/26 02:42:35;;;;;;;4.35;1.77;;;;;;;22.64;61.33;98324.22;4418166;32;33678;-71
2023/07/26 02:45:03;;;;;;;4.05;2.28;;;;;;;22.38;61.68;98320.72;4421133;32;33759;-68
2023/07/26 02:47:32;;;;;;;3.75;1.80;;;;;;;22.46;61.40;98311.41;4420183;32;34152;-69
2023/07/26 02:50:01;;;;;;;5.37;1.73;;;;;;;22.13;62.40;98317.16;4420291;32;33998;-68
2023/07/26 02:52:29;;;;;;;2.03;1.23;;;;;;;22.08;62.78;98318.63;4419808;32;34671;-70
2023/07/26 02:54:57;;;;;;;4.90;1.77;;;;;;;22.36;61.66;98309.19;4420372;32;33996;-70
2023/07/26 02:57:25;;;;;;;3.65;1.98;;;;;;;22.54;61.09;98303.75;4403121;32;33922;-70
2023/07/26 02:59:53;;;;;;;4.45;1.98;;;;;;;22.41;61.72;98303.91;4420574;32;34263;-70
2023/07/26 03:02:22;;;;;;;6.03;2.15;;;;;;;22.50;61.29;98302.56;4423927;32;34928;-70
2023/07/26 03:04:49;;;;;;;9.18;2.67;;;;;;;22.79;60.62;98300.97;4412693;32;33500;-70
2023/07/26 03:07:17;;;;;;;7.47;2.58;;;;;;;23.09;59.84;98310.28;4420563;32;33621;-70
2023/07/26 03:09:45;;;;;;;3.83;1.92;;;;;;;22.95;60.09;98310.44;4435149;32;34770;-70
2023/07/26 03:12:12;;;;;;;9.15;1.83;;;;;;;23.05;59.82;98303.59;4423713;32;33044;-71
2023/07/26 03:14:40;;;;;;;3.60;1.92;;;;;;;22.96;59.43;98308.56;4418631;32;33621;-74
2023/07/26 03:17:09;;;;;;;3.55;2.10;;;;;;;23.08;59.43;98304.00;4434620;32;34680;-72
2023/07/26 03:19:50;;;;;;;4.97;1.70;;;;;;;22.92;60.04;98310.00;4420119;32;34072;-67
2023/07/26 03:22:17;;;;;;;5.60;2.05;;;;;;;23.06;59.50;98310.72;4435249;32;33383;-73
2023/07/26 03:24:45;;;;;;;3.78;2.00;;;;;;;22.77;59.95;98307.69;4424526;32;33406;-70
2023/07/26 03:27:13;;;;;;;6.72;2.12;;;;;;;22.90;59.54;98318.44;4422407;32;32605;-70
2023/07/26 03:29:40;;;;;;;4.70;2.28;;;;;;;22.87;59.61;98316.19;4418313;32;34582;-72
2023/07/26 03:32:08;;;;;;;3.97;1.62;;;;;;;22.91;59.36;98332.91;4428714;32;33408;-77
2023/07/26 03:34:36;;;;;;;3.50;1.85;;;;;;;22.71;60.05;98333.16;4416135;32;33888;-73
2023/07/26 03:37:04;;;;;;;5.45;2.05;;;;;;;22.93;59.60;98349.91;4430748;32;34289;-68
2023/07/26 03:39:31;;;;;;;3.50;1.83;;;;;;;23.00;58.96;98347.94;4435361;32;34369;-68
2023/07/26 03:42:00;;;;;;;4.62;2.12;;;;;;;22.77;59.62;98341.25;4435432;32;33106;-65
2023/07/26 03:44:28;;;;;;;4.53;1.98;;;;;;;22.93;59.41;98358.94;4419307;32;33864;-67
2023/07/26 03:46:55;;;;;;;3.92;1.60;;;;;;;22.94;59.07;98365.22;4416698;32;34788;-70
2023/07/26 03:49:23;;;;;;;5.18;2.00;;;;;;;23.01;58.60;98377.72;4419166;32;33504;-69
2023/07/26 03:51:51;;;;;;;2.78;1.55;;;;;;;22.74;58.84;98379.91;4421304;32;34938;-68
2023/07/26 03:54:18;;;;;;;5.03;2.10;;;;;;;22.65;59.20;98391.31;4424070;32;34893;-68
2023/07/26 03:56:46;;;;;;;5.03;2.17;;;;;;;22.06;60.63;98391.59;4434689;32;34633;-67
2023/07/26 03:59:14;;;;;;;3.50;1.15;;;;;;;22.29;59.19;98390.19;4432396;32;33933;-66
2023/07/26 04:01:41;;;;;;;3.75;1.73;;;;;;;22.70;58.54;98384.16;4418600;32;34170;-67
2023/07/26 04:04:09;;;;;;;3.58;1.77;;;;;;;22.87;57.85;98389.00;4419564;32;33600;-67
2023/07/26 04:06:37;;;;;;;3.72;1.37;;;;;;;22.36;58.39;98393.69;4431072;32;35167;-67
2023/07/26 04:09:04;;;;;;;4.18;1.45;;;;;;;21.98;60.26;98399.22;4420620;32;33711;-66
2023/07/26 04:11:32;;;;;;;2.78;1.35;;;;;;;22.45;58.27;98392.34;4424584;32;33171;-67
2023/07/26 04:14:00;;;;;;;2.78;1.50;;;;;;;22.33;58.50;98385.97;4430244;32;33647;-66
2023/07/26 04:16:27;;;;;;;3.03;1.42;;;;;;;21.76;60.43;98401.44;4427249;32;33718;-67
2023/07/26 04:18:55;;;;;;;2.95;1.23;;;;;;;21.92;59.78;98398.19;4425547;32;34910;-67
2023/07/26 04:21:23;;;;;;;3.62;1.48;;;;;;;21.87;58.85;98407.03;4427716;32;34587;-67
2023/07/26 04:23:50;;;;;;;2.15;1.20;;;;;;;22.16;58.02;98404.78;4424069;32;33724;-67
2023/07/26 04:26:19;;;;;;;2.97;1.50;;;;;;;21.83;58.57;98410.44;4433219;32;33654;-67
2023/07/26 04:28:46;;;;;;;1.08;0.73;;;;;;;22.20;58.17;98413.34;4424819;32;33884;-68
2023/07/26 04:31:14;;;;;;;3.20;1.42;;;;;;;21.84;57.85;98404.75;4425669;32;33140;-67
2023/07/26 04:33:42;;;;;;;2.12;1.10;;;;;;;22.27;57.26;98395.03;4430371;32;33654;-67
2023/07/26 04:36:09;;;;;;;4.68;1.62;;;;;;;22.58;56.15;98401.47;4423183;32;34013;-72
2023/07/26 04:38:37;;;;;;;3.60;1.10;;;;;;;21.48;57.46;98401.84;4423075;32;33525;-71
2023/07/26 04:41:05;;;;;;;6.32;1.33;;;;;;;21.63;57.90;98395.03;4422191;32;35110;-71
2023/07/26 04:43:33;;;;;;;2.87;1.12;;;;;;;21.93;57.21;98393.59;4423409;32;34032;-72
2023/07/26 04:46:00;;;;;;;3.05;1.08;;;;;;;21.77;57.97;98395.81;4422770;32;33940;-72
2023/07/26 04:48:28;;;;;;;1.20;0.60;;;;;;;21.78;57.39;98396.62;4424737;32;33754;-71
2023/07/26 04:50:55;;;;;;;1.58;1.02;;;;;;;22.01;56.93;98399.59;4425731;32;32623;-71
2023/07/26 04:53:23;;;;;;;2.53;1.15;;;;;;;22.14;56.08;98397.84;4429899;32;33477;-71
2023/07/26 04:55:55;;;;;;;2.55;1.17;;;;;;;21.36;57.42;98402.53;4425676;32;33780;-71
2023/07/26 04:58:23;;;;;;;2.10;1.00;;;;;;;21.62;57.02;98414.31;4427580;32;34306;-71
2023/07/26 05:00:51;;;;;;;2.75;1.02;;;;;;;21.88;56.82;98396.97;4424357;32;33605;-71
2023/07/26 05:03:20;;;;;;;2.05;0.98;;;;;;;21.61;57.36;98394.44;4447318;32;33466;-72
2023/07/26 05:05:50;;;;;;;1.83;0.60;;;;;;;21.70;57.16;98399.59;4436055;32;33973;-71
2023/07/26 05:08:18;;;;;;;1.83;0.95;;;;;;;21.71;57.10;98393.13;4439653;32;33978;-71
2023/07/26 05:10:52;;;;;;;2.65;0.98;;;;;;;21.98;56.20;98391.88;4439897;32;34681;-71
2023/07/26 05:13:21;;;;;;;2.23;1.03;;;;;;;21.18;57.22;98396.91;4436437;32;33694;-68
2023/07/26 05:15:49;;;;;;;1.75;0.95;;;;;;;21.37;57.87;98392.47;4440789;32;35074;-68
2023/07/26 05:18:16;;;;;;;1.42;0.93;;;;;;;20.96;58.92;98395.53;4442122;32;33836;-67
2023/07/26 05:20:44;;;;;;;2.55;1.30;;;;;;;21.79;56.86;98410.00;4441542;32;34372;-67
2023/07/26 05:23:12;;;;;;;2.00;1.05;;;;;;;21.61;56.66;98413.50;4439045;32;34767;-66
2023/07/26 05:25:40;;;;;;;2.75;0.82;;;;;;;21.08;58.77;98424.56;4447027;32;34912;-70
2023/07/26 05:28:08;;;;;;;1.17;0.47;;;;;;;21.53;57.73;98421.91;4429552;32;35012;-70
2023/07/26 05:30:37;;;;;;;1.45;0.95;;;;;;;21.73;57.07;98407.34;4440479;32;34774;-67
2023/07/26 05:33:06;;;;;;;2.62;1.10;;;;;;;21.62;57.27;98412.44;4443515;32;34652;-66
2023/07/26 05:35:34;;;;;;;2.65;1.08;;;;;;;21.05;57.38;98425.00;4440293;32;35398;-67
2023/07/26 05:38:02;;;;;;;2.65;0.90;;;;;;;21.62;57.68;98430.66;4427941;32;34051;-67
2023/07/26 05:40:30;;;;;;;4.37;1.15;;;;;;;22.04;56.21;98423.69;4437040;32;34414;-67
2023/07/26 05:42:57;;;;;;;2.03;1.23;;;;;;;21.83;56.21;98413.16;4437069;32;33390;-66
2023/07/26 05:45:27;;;;;;;2.87;1.08;;;;;;;21.27;57.42;98417.38;4434572;32;35088;-66
2023/07/26 05:47:54;;;;;;;1.95;0.98;;;;;;;21.66;56.98;98431.06;4432887;32;34923;-64
2023/07/26 05:50:22;;;;;;;1.40;0.82;;;;;;;21.46;57.00;98431.16;4434458;32;34135;-65
2023/07/26 05:52:52;;;;;;;2.10;1.05;;;;;;;21.81;55.99;98431.59;4429209;32;33584;-66
2023/07/26 05:55:20;;;;;;;2.97;1.25;;;;;;;21.74;56.30;98444.44;4425548;32;34221;-67
2023/07/26 05:57:47;;;;;;;1.62;0.73;;;;;;;21.52;57.02;98441.19;4441336;32;34032;-66
2023/07/26 06:00:17;;;;;;;2.60;0.95;;;;;;;21.39;57.20;98439.34;4435957;32;34314;-68
2023/07/26 06:02:45;;;;;;;2.33;1.15;;;;;;;21.55;58.32;98441.59;4422420;32;33595;-67
2023/07/26 06:05:13;;;;;;;1.52;0.85;;;;;;;21.56;56.69;98440.53;4435432;32;34110;-67
2023/07/26 06:07:43;;;;;;;2.50;1.37;;;;;;;21.10;57.53;98443.41;4432612;32;33997;-67
2023/07/26 06:10:10;;;;;;;2.47;1.33;;;;;;;21.03;57.88;98446.16;4435300;32;33472;-67
2023/07/26 06:12:39;;;;;;;2.20;0.70;;;;;;;20.78;59.45;98450.59;4432733;32;34540;-66
2023/07/26 06:15:07;;;;;;;0.70;0.50;;;;;;;21.01;58.20;98453.69;4444318;32;33994;-67
2023/07/26 06:17:35;;;;;;;4.50;1.52;;;;;;;20.87;58.21;98452.06;4429302;32;34205;-67
2023/07/26 06:20:04;;;;;;;2.08;0.95;;;;;;;20.68;58.43;98457.31;4429229;32;33458;-69
2023/07/26 06:22:32;;;;;;;2.17;0.90;;;;;;;20.78;58.95;98456.03;4436929;32;34772;-69
2023/07/26 06:24:59;;;;;;;1.85;0.90;;;;;;;21.05;58.06;98456.81;4430917;32;34122;-69
2023/07/26 06:27:28;;;;;;;5.05;1.15;;;;;;;21.64;56.51;98447.63;4422643;32;34620;-68
2023/07/26 06:29:57;;;;;;;3.28;1.42;;;;;;;21.81;55.79;98453.37;4426789;32;34403;-69
2023/07/26 06:32:24;;;;;;;1.10;0.68;;;;;;;21.02;58.76;98451.78;4435324;32;34845;-69
2023/07/26 06:34:52;;;;;;;5.55;1.12;;;;;;;21.92;56.54;98458.12;4442464;32;34034;-69
2023/07/26 06:37:20;;;;;;;2.70;1.17;;;;;;;21.26;59.05;98463.88;4429535;32;34058;-69
2023/07/26 06:39:47;;;;;;;2.70;0.90;;;;;;;21.61;59.16;98470.66;4433301;32;34149;-69
2023/07/26 06:42:15;;;;;;;3.87;1.35;;;;;;;21.59;57.74;98477.37;4433767;32;33641;-68
2023/07/26 06:44:42;;;;;;;3.78;1.42;;;;;;;21.65;58.09;98481.12;4436040;32;33968;-68
2023/07/26 06:47:10;;;;;;;2.10;1.05;;;;;;;21.31;59.54;98478.47;4447681;32;33854;-69
2023/07/26 06:49:38;;;;;;;1.52;0.98;;;;;;;21.14;60.76;98482.72;4435621;32;33228;-69
2023/07/26 06:52:06;;;;;;;2.40;1.10;;;;;;;21.39;60.03;98482.91;4428933;32;33593;-69
2023/07/26 06:54:33;;;;;;;2.75;1.00;;;;;;;21.40;59.51;98481.84;4443005;32;34991;-69
2023/07/26 06:57:01;;;;;;;2.25;1.05;;;;;;;21.65;59.04;98494.75;4433466;32;34126;-68
2023/07/26 06:59:28;;;;;;;4.53;1.50;;;;;;;21.08;60.45;98497.19;4442173;32;34733;-68
2023/07/26 07:01:56;;;;;;;3.37;1.27;;;;;;;21.66;59.07;98497.22;4433052;32;34861;-68
2023/07/26 07:04:24;;;;;;;1.58;0.95;;;;;;;21.54;59.40;98504.41;4433973;32;35477;-68
2023/07/26 07:06:52;;;;;;;3.33;1.48;;;;;;;21.39;60.86;98512.84;4431912;32;34268;-68
2023/07/26 07:09:19;;;;;;;4.70;1.12;;;;;;;21.91;59.05;98515.56;4434057;32;33579;-70
2023/07/26 07:11:47;;;;;;;3.12;1.20;;;;;;;21.68;58.60;98510.66;4437482;32;34907;-71
2023/07/26 07:14:15;;;;;;;1.58;0.82;;;;;;;21.72;59.34;98514.59;4433685;32;33961;-71
2023/07/26 07:16:42;;;;;;;3.12;1.37;;;;;;;21.33;60.48;98519.94;4423651;32;34604;-70
2023/07/26 07:19:10;;;;;;;1.85;0.77;;;;;;;21.29;60.09;98512.44;4433892;32;33252;-69
2023/07/26 07:21:37;;;;;;;1.33;0.80;;;;;;;21.07;60.42;98518.12;4437634;32;34532;-69
2023/07/26 07:24:05;;;;;;;1.50;0.88;;;;;;;20.43;62.28;98522.28;4436046;32;35225;-69
2023/07/26 07:26:33;;;;;;;3.85;1.37;;;;;;;21.49;59.63;98532.28;4433350;32;35182;-69
2023/07/26 07:29:01;;;;;;;3.37;1.23;;;;;;;21.52;59.01;98536.47;4442869;32;33338;-69
2023/07/26 07:31:29;;;;;;;1.87;0.88;;;;;;;21.14;60.00;98537.97;4442055;32;34728;-68
2023/07/26 07:33:57;;;;;;;1.95;1.05;;;;;;;21.55;59.15;98531.41;4439996;32;33815;-68
2023/07/26 07:36:25;;;;;;;5.03;1.25;;;;;;;21.24;59.70;98523.09;4431915;32;34890;-68
2023/07/26 07:38:52;;;;;;;3.45;1.00;;;;;;;21.40;60.10;98528.13;4433004;32;33788;-67
2023/07/26 07:41:20;;;;;;;2.08;1.02;;;;;;;21.04;61.10;98539.47;4436139;32;33736;-67
2023/07/26 07:43:48;;;;;;;2.47;1.10;;;;;;;21.25;61.04;98538.37;4437605;32;33633;-66
2023/07/26 07:46:15;;;;;;;2.10;1.02;;;;;;;21.19;61.30;98540.09;4436146;32;33743;-67
2023/07/26 07:48:43;;;;;;;1.77;0.82;;;;;;;21.04;61.44;98537.59;4437202;32;33357;-67
2023/07/26 07:51:11;;;;;;;1.42;0.60;;;;;;;20.47;62.85;98548.00;4431770;32;33879;-68
2023/07/26 07:53:38;;;;;;;3.05;1.27;;;;;;;21.10;61.40;98553.06;4435411;32;33977;-67
2023/07/26 07:56:06;;;;;;;2.55;1.08;;;;;;;21.35;61.05;98553.25;4431619;32;34855;-68
2023/07/26 07:58:34;;;;;;;1.25;0.70;;;;;;;20.80;62.12;98555.41;4427446;32;34917;-67
2023/07/26 08:01:02;;;;;;;3.55;1.23;;;;;;;21.23;60.17;98549.47;4396627;32;35005;-66
2023/07/26 08:03:30;;;;;;;5.22;1.37;;;;;;;20.75;61.86;98563.34;4402640;32;33773;-68
2023/07/26 08:05:57;;;;;;;3.08;1.23;;;;;;;20.46;62.96;98561.81;4402060;32;35052;-67
2023/07/26 08:08:25;;;;;;;2.72;1.37;;;;;;;20.14;64.07;98566.13;4396090;32;33291;-67
2023/07/26 08:10:53;;;;;;;2.70;0.98;;;;;;;19.85;65.15;98570.00;4409174;32;33587;-65
2023/07/26 08:13:20;;;;;;;1.85;0.98;;;;;;;20.34;64.17;98558.03;4409506;32;34562;-64
2023/07/26 08:15:48;;;;;;;3.28;1.37;;;;;;;20.53;63.61;98559.13;4400358;32;33981;-68
2023/07/26 08:18:16;;;;;;;2.67;1.23;;;;;;;20.93;62.39;98560.00;4404068;32;33288;-68
2023/07/26 08:20:43;;;;;;;7.18;1.52;;;;;;;21.23;61.61;98563.09;4401332;32;34577;-67
2023/07/26 08:23:11;;;;;;;1.95;1.15;;;;;;;20.68;62.31;98566.06;4398776;32;33845;-70
2023/07/26 08:25:40;;;;;;;1.45;1.02;;;;;;;20.85;61.46;98560.19;4400367;32;33487;-69
2023/07/26 08:28:07;;;;;;;3.30;1.33;;;;;;;20.69;63.25;98561.44;4398847;32;33174;-68
2023/07/26 08:30:35;;;;;;;2.70;1.27;;;;;;;20.62;63.15;98571.47;4399587;32;34596;-68
2023/07/26 08:33:03;;;;;;;1.95;1.17;;;;;;;20.54;63.42;98580.66;4427261;32;34160;-69
2023/07/26 08:35:31;;;;;;;2.37;1.12;;;;;;;20.82;63.00;98587.81;4436734;32;35032;-70
2023/07/26 08:37:58;;;;;;;2.65;1.17;;;;;;;20.74;62.65;98588.00;4432838;32;33550;-67
2023/07/26 08:40:26;;;;;;;2.30;1.15;;;;;;;21.02;62.12;98590.50;4436309;32;35314;-68
2023/07/26 08:42:55;;;;;;;1.52;0.90;;;;;;;20.83;63.33;98595.75;4432438;32;33940;-69
2023/07/26 08:45:23;;;;;;;2.85;1.23;;;;;;;20.36;63.68;98594.81;4431311;32;34965;-67
2023/07/26 08:47:53;;;;;;;3.65;1.42;;;;;;;20.35;62.85;98595.88;4436294;32;33726;-68
2023/07/26 08:50:21;;;;;;;2.28;1.17;;;;;;;20.67;61.61;98610.59;4418903;32;33514;-68
2023/07/26 08:52:48;;;;;;;3.33;1.70;;;;;;;19.86;65.39;98609.69;4429797;32;34942;-67
2023/07/26 08:55:16;;;;;;;2.40;1.35;;;;;;;20.38;63.19;98616.34;4435595;32;33938;-68
2023/07/26 08:57:44;;;;;;;2.28;1.20;;;;;;;20.84;61.27;98607.47;4432161;32;33524;-67
2023/07/26 09:00:12;;;;;;;2.50;1.10;;;;;;;20.86;61.36;98614.34;4439449;32;33934;-68
2023/07/26 09:02:45;;;;;;;2.67;1.17;;;;;;;20.15;63.87;98625.69;4445117;32;35422;-70
2023/07/26 09:05:13;;;;;;;1.17;0.68;;;;;;;20.77;61.27;98628.37;4446680;32;35212;-71
2023/07/26 09:07:40;;;;;;;3.33;1.27;;;;;;;20.68;62.13;98625.88;4436127;32;34736;-69
2023/07/26 09:10:08;;;;;;;2.28;1.23;;;;;;;20.57;61.55;98633.78;4437328;32;35247;-67
2023/07/26 09:12:36;;;;;;;1.77;1.05;;;;;;;20.42;62.40;98639.38;4451786;32;35304;-66
2023/07/26 09:15:05;;;;;;;1.45;0.82;;;;;;;20.75;60.96;98630.47;4433184;32;34696;-64
2023/07/26 09:17:41;;;;;;;2.55;1.23;;;;;;;20.17;62.66;98634.47;4437386;32;33313;-66
2023/07/26 09:20:26;;;;;;;3.47;1.35;;;;;;;20.46;62.34;98643.34;4439509;32;33834;-66
2023/07/26 09:23:16;;;;;;;3.12;1.10;;;;;;;20.46;62.10;98630.59;4429464;32;33937;-64
2023/07/26 09:25:44;;;;;;;1.65;0.93;;;;;;;20.15;62.89;98633.00;4445509;32;34009;-64
2023/07/26 09:28:14;;;;;;;2.70;1.10;;;;;;;20.52;62.46;98620.81;4434794;32;34645;-64
2023/07/26 09:30:45;;;;;;;1.10;0.73;;;;;;;21.20;59.76;98617.94;4430707;32;33283;-65
2023/07/26 09:33:13;;;;;;;1.75;0.95;;;;;;;21.26;60.79;98618.97;4438712;32;33681;-64
2023/07/26 09:35:48;;;;;;;1.40;1.08;;;;;;;21.40;60.64;98613.31;4434166;32;34663;-64
2023/07/26 09:38:18;;;;;;;2.60;1.17;;;;;;;20.94;61.89;98613.34;4437162;32;33130;-65
2023/07/26 09:40:46;;;;;;;6.75;1.27;;;;;;;21.33;60.76;98625.25;4425024;32;34415;-65
2023/07/26 09:43:27;;;;;;;2.12;1.40;;;;;;;21.88;59.83;98617.59;4432248;32;34759;-64
2023/07/26 09:46:03;;;;;;;2.10;1.37;;;;;;;21.43;59.77;98606.63;4435018;32;35263;-64
2023/07/26 09:48:58;;;;;;;2.10;1.17;;;;;;;21.30;60.41;98606.63;4444191;32;34331;-68
2023/07/26 09:51:31;;;;;;;3.10;1.37;;;;;;;21.79;60.11;98605.28;4433439;32;33444;-68
2023/07/26 09:53:59;;;;;;;2.28;1.12;;;;;;;22.13;59.06;98617.72;4417527;32;33815;-65
2023/07/26 09:56:33;;;;;;;2.20;1.37;;;;;;;21.45;59.41;98614.59;4406627;32;34836;-65
2023/07/26 09:59:01;;;;;;;2.37;1.42;;;;;;;21.46;58.71;98627.16;4432013;32;32217;-67
2023/07/26 10:01:29;;;;;;;3.80;1.52;;;;;;;21.31;58.83;98624.59;4413246;32;33537;-64
2023/07/26 10:04:00;;;;;;;3.03;1.70;;;;;;;21.99;58.18;98625.12;4397752;32;34758;-65
2023/07/26 10:06:29;;;;;;;4.93;1.25;;;;;;;21.25;59.86;98620.87;4399587;32;34240;-65
2023/07/26 10:08:58;;;;;;;2.10;1.37;;;;;;;21.31;59.80;98627.31;4403206;32;33760;-65
2023/07/26 10:11:27;;;;;;;3.10;1.27;;;;;;;21.26;59.00;98633.41;4403998;32;34352;-66
2023/07/26 10:13:58;;;;;;;2.28;1.73;;;;;;;21.32;59.00;98631.75;4388812;32;34039;-66
2023/07/26 10:16:26;;;;;;;2.05;1.27;;;;;;;21.06;59.25;98644.31;4411112;32;33933;-65
2023/07/26 10:18:56;;;;;;;4.85;2.08;;;;;;;20.94;60.73;98652.25;4390654;32;33115;-66
2023/07/26 10:21:24;;;;;;;1.65;1.15;;;;;;;20.88;61.37;98641.38;4402269;32;33728;-66
2023/07/26 10:23:52;;;;;;;2.35;1.27;;;;;;;21.08;60.18;98641.38;4403603;32;33348;-65
2023/07/26 10:26:22;;;;;;;2.58;1.45;;;;;;;20.77;60.20;98644.69;4407675;32;33865;-66
2023/07/26 10:28:51;;;;;;;3.35;1.70;;;;;;;20.47;62.35;98639.56;4405351;32;34936;-66
2023/07/26 10:31:23;;;;;;;3.97;1.52;;;;;;;20.96;60.45;98643.87;4420441;32;34036;-66
2023/07/26 10:33:53;;;;;;;1.35;1.00;;;;;;;20.86;60.87;98641.56;4421434;32;33959;-66
2023/07/26 10:36:21;;;;;;;3.62;1.15;;;;;;;21.24;59.40;98640.09;4420171;32;37096;-66
2023/07/26 10:38:49;;;;;;;5.18;1.55;;;;;;;20.94;59.59;98644.09;4419966;32;33106;-65
2023/07/26 10:41:24;;;;;;;2.65;1.48;;;;;;;20.42;60.87;98637.50;4421077;32;34419;-65
2023/07/26 10:44:05;;;;;;;1.02;0.85;;;;;;;21.19;59.08;98646.19;4416369;32;35062;-64
2023/07/26 10:46:50;;;;;;;7.15;1.60;;;;;;;20.83;59.62;98649.28;4419943;32;34993;-64
2023/07/26 10:49:29;;;;;;;3.33;1.73;;;;;;;20.85;58.36;98649.94;4420545;32;34330;-65
2023/07/26 10:51:58;;;;;;;2.83;1.40;;;;;;;20.64;60.08;98651.78;4418996;32;33729;-65
2023/07/26 10:54:41;;;;;;;2.58;1.60;;;;;;;20.45;59.83;98642.50;4421372;32;33706;-65
2023/07/26 10:57:10;;;;;;;3.92;1.12;;;;;;;20.49;59.67;98656.53;4421229;32;34913;-65
2023/07/26 10:59:52;;;;;;;4.57;1.35;;;;;;;20.43;59.34;98662.78;4421051;32;33283;-65
2023/07/26 11:02:43;;;;;;;2.25;1.58;;;;;;;20.16;59.90;98662.69;4421919;32;33917;-64
2023/07/26 11:05:23;;;;;;;1.85;1.20;;;;;;;20.44;59.10;98650.84;4417898;32;33966;-64
2023/07/26 11:08:02;;;;;;;7.10;1.80;;;;;;;20.53;58.74;98659.69;4426247;32;34098;-65
2023/07/26 11:10:38;;;;;;;3.03;1.25;;;;;;;20.12;59.95;98666.00;4420883;32;33788;-65
2023/07/26 11:13:13;;;;;;;1.77;1.05;;;;;;;19.91;60.51;98651.50;4419542;32;33283;-65
2023/07/26 11:15:46;;;;;;;2.75;1.30;;;;;;;20.51;58.94;98649.03;4433284;32;33650;-65
2023/07/26 11:18:41;;;;;;;2.05;1.17;;;;;;;20.59;60.09;98654.28;4421532;32;34319;-65
2023/07/26 11:21:15;;;;;;;2.08;1.45;;;;;;;20.81;57.30;98643.25;4418969;32;33581;-65
2023/07/26 11:23:44;;;;;;;2.12;1.05;;;;;;;20.23;59.89;98649.97;4419246;32;33853;-65
2023/07/26 11:26:12;;;;;;;2.35;1.40;;;;;;;20.84;58.64;98649.09;4406285;32;33983;-65
2023/07/26 11:28:42;;;;;;;2.37;1.37;;;;;;;21.13;57.18;98649.75;4417392;32;34684;-65
2023/07/26 11:31:17;;;;;;;2.03;0.95;;;;;;;21.18;57.23;98656.22;4417942;32;34675;-65
2023/07/26 11:33:47;;;;;;;3.12;1.35;;;;;;;21.27;56.73;98648.69;4415918;32;32959;-65
2023/07/26 11:36:20;;;;;;;2.70;1.48;;;;;;;21.21;55.93;98646.81;4421663;32;33808;-65
2023/07/26 11:38:48;;;;;;;1.90;1.10;;;;;;;21.26;57.82;98657.06;4416084;32;35085;-65
2023/07/26 11:41:19;;;;;;;3.65;1.52;;;;;;;21.72;55.03;98653.47;4411564;32;34815;-65
2023/07/26 11:43:49;;;;;;;3.00;1.55;;;;;;;21.51;56.14;98652.69;4419849;32;33774;-65